Time;durP1;ratioP1;P1;durP2;ratioP2;P2;SDS_P1;SDS_P2;PMS_P1;PMS_P2;Temp;Humidity;BMP_temperature;BMP_pressure;BME280_temperature;BME280_humidity;BME280_pressure;Samples;Min_cycle;Max_cycle;Signal;HPM_P1;HPM_P2
2022/11/12 00:00:15;;;;;;;22.10;5.07;;;11.90;99.90;;;;;;5036060;28;20083;-77
2022/11/12 00:03:02;;;;;;;20.38;4.72;;;12.00;99.90;;;;;;5054317;28;20717;-78
2022/11/12 00:05:49;;;;;;;19.42;4.30;;;12.00;99.90;;;;;;5037134;28;20048;-78
2022/11/12 00:08:36;;;;;;;21.75;4.85;;;12.00;99.90;;;;;;5059339;28;20060;-78
2022/11/12 00:11:22;;;;;;;13.55;4.85;;;12.00;99.90;;;;;;5050933;28;20510;-78
2022/11/12 00:14:07;;;;;;;19.48;4.07;;;12.00;99.90;;;;;;5033203;28;20452;-76
2022/11/12 00:16:53;;;;;;;20.83;4.68;;;12.00;99.90;;;;;;5034316;28;20064;-77
2022/11/12 00:19:41;;;;;;;18.83;4.20;;;12.00;99.90;;;;;;5048671;28;20059;-77
2022/11/12 00:22:27;;;;;;;18.63;4.53;;;12.10;99.90;;;;;;5049633;28;20210;-77
2022/11/12 00:25:13;;;;;;;19.23;4.03;;;12.10;99.90;;;;;;5046434;28;20113;-77
2022/11/12 00:28:03;;;;;;;15.73;3.80;;;12.10;99.90;;;;;;5049109;28;20045;-76
2022/11/12 00:30:48;;;;;;;19.05;4.22;;;12.10;99.90;;;;;;5046023;28;20052;-78
2022/11/12 00:33:34;;;;;;;15.13;4.00;;;12.10;99.90;;;;;;5041289;28;20053;-78
2022/11/12 00:36:22;;;;;;;16.33;3.92;;;12.10;99.90;;;;;;5041569;28;20130;-76
2022/11/12 00:39:08;;;;;;;13.40;3.80;;;12.20;99.90;;;;;;5049669;28;20066;-77
2022/11/12 00:41:54;;;;;;;22.30;4.15;;;12.20;99.90;;;;;;5031293;28;20049;-77
2022/11/12 00:44:40;;;;;;;18.27;4.05;;;12.30;99.90;;;;;;5041678;28;20068;-77
2022/11/12 00:47:25;;;;;;;17.65;3.42;;;12.30;99.90;;;;;;5056999;28;20425;-77
2022/11/12 00:50:11;;;;;;;16.13;3.70;;;12.40;99.90;;;;;;5035902;28;20048;-78
2022/11/12 00:52:58;;;;;;;18.77;4.00;;;12.40;99.90;;;;;;5033521;28;20520;-76
2022/11/12 00:55:44;;;;;;;9.00;3.47;;;12.40;99.90;;;;;;5051321;28;20041;-78
2022/11/12 00:58:31;;;;;;;11.07;3.13;;;12.50;99.90;;;;;;5042596;28;20059;-78
2022/11/12 01:01:18;;;;;;;9.43;3.33;;;12.50;99.90;;;;;;5071295;28;20571;-78
2022/11/12 01:04:04;;;;;;;12.43;3.35;;;12.40;99.90;;;;;;5037072;28;20053;-77
2022/11/12 01:06:50;;;;;;;13.68;3.22;;;12.50;99.90;;;;;;5051029;28;20130;-78
2022/11/12 01:09:38;;;;;;;9.43;3.35;;;12.50;99.90;;;;;;5053111;28;20122;-78
2022/11/12 01:12:24;;;;;;;8.50;2.40;;;12.50;99.90;;;;;;5049671;28;20051;-76
2022/11/12 01:15:11;;;;;;;14.40;2.78;;;12.40;99.90;;;;;;5053833;28;20381;-77
2022/11/12 01:17:56;;;;;;;10.77;3.05;;;12.40;99.90;;;;;;5050200;28;20521;-77
2022/11/12 01:20:42;;;;;;;8.10;3.05;;;12.40;99.90;;;;;;5040584;28;20038;-72
2022/11/12 01:23:29;;;;;;;11.30;2.65;;;12.40;99.90;;;;;;5053631;28;20464;-72
2022/11/12 01:26:21;;;;;;;5.97;2.63;;;12.40;99.90;;;;;;5040924;28;20045;-72
2022/11/12 01:29:07;;;;;;;6.70;2.92;;;12.40;99.90;;;;;;5039821;28;20041;-73
2022/11/12 01:31:53;;;;;;;7.43;2.50;;;12.40;99.90;;;;;;5033647;28;20052;-73
2022/11/12 01:34:39;;;;;;;6.80;2.38;;;12.30;99.90;;;;;;5040976;28;20044;-72
2022/11/12 01:37:25;;;;;;;4.80;2.50;;;12.30;99.90;;;;;;5067764;28;20820;-72
2022/11/12 01:40:12;;;;;;;6.05;2.13;;;12.30;99.90;;;;;;5034693;28;20114;-73
2022/11/12 01:42:59;;;;;;;7.22;2.25;;;12.30;99.90;;;;;;5032820;28;20111;-73
2022/11/12 01:45:49;;;;;;;3.75;2.00;;;12.40;99.90;;;;;;5046437;28;20520;-73
2022/11/12 01:48:38;;;;;;;3.95;2.20;;;12.40;99.90;;;;;;5057482;28;20082;-73
2022/11/12 01:51:32;;;;;;;5.05;2.10;;;12.40;99.90;;;;;;5047990;28;20041;-73
2022/11/12 01:54:21;;;;;;;4.65;1.67;;;12.40;99.90;;;;;;5039726;28;20117;-73
2022/11/12 01:57:10;;;;;;;4.93;2.10;;;12.40;99.90;;;;;;5041299;28;20045;-73
2022/11/12 02:00:03;;;;;;;4.10;2.28;;;12.50;99.90;;;;;;5041795;28;20041;-73
2022/11/12 02:02:55;;;;;;;3.42;1.77;;;12.50;99.90;;;;;;5041618;28;20040;-72
2022/11/12 02:05:42;;;;;;;11.52;4.18;;;12.50;99.90;;;;;;5060911;28;20421;-72
2022/11/12 02:08:30;;;;;;;5.50;2.70;;;12.50;99.90;;;;;;5033503;28;20041;-72
2022/11/12 02:11:18;;;;;;;4.40;2.08;;;12.50;99.90;;;;;;5050145;28;20044;-72
2022/11/12 02:14:04;;;;;;;2.55;2.25;;;12.50;99.90;;;;;;5050002;28;20047;-73
2022/11/12 02:16:51;;;;;;;3.40;2.10;;;12.50;99.90;;;;;;5036006;28;20056;-73
2022/11/12 02:19:37;;;;;;;4.60;1.52;;;12.50;99.90;;;;;;5038472;28;20543;-73
2022/11/12 02:22:25;;;;;;;5.22;2.15;;;12.60;99.90;;;;;;5067531;28;20125;-72
2022/11/12 02:25:14;;;;;;;4.03;2.00;;;12.50;99.90;;;;;;5045199;28;20049;-73
2022/11/12 02:28:03;;;;;;;2.70;1.88;;;12.50;99.90;;;;;;5051447;28;20084;-72
2022/11/12 02:30:50;;;;;;;3.58;1.75;;;12.50;99.90;;;;;;5031757;28;20048;-72
2022/11/12 02:33:36;;;;;;;2.75;1.50;;;12.40;99.90;;;;;;5044315;28;21478;-73
2022/11/12 02:36:22;;;;;;;1.88;1.20;;;12.40;99.90;;;;;;5033584;28;20057;-73
2022/11/12 02:39:10;;;;;;;3.25;1.30;;;12.40;99.90;;;;;;5038086;28;20109;-72
2022/11/12 02:41:56;;;;;;;2.25;1.02;;;12.40;99.90;;;;;;5051797;28;20051;-73
2022/11/12 02:44:42;;;;;;;2.08;1.05;;;12.40;99.90;;;;;;5038010;28;20183;-73
2022/11/12 02:47:28;;;;;;;1.88;1.20;;;12.40;99.90;;;;;;5031172;28;20768;-73
2022/11/12 02:50:15;;;;;;;3.75;1.55;;;12.30;99.90;;;;;;5036844;28;20126;-73
2022/11/12 02:53:01;;;;;;;2.47;1.00;;;12.30;99.90;;;;;;5032227;28;20045;-72
2022/11/12 02:55:48;;;;;;;1.50;1.20;;;12.30;99.90;;;;;;5046203;28;20080;-73
2022/11/12 02:58:34;;;;;;;1.45;1.30;;;12.30;99.90;;;;;;5044005;28;20059;-74
2022/11/12 03:01:20;;;;;;;2.75;1.35;;;12.30;99.90;;;;;;5045551;28;20043;-74
2022/11/12 03:04:06;;;;;;;2.08;1.23;;;12.30;99.90;;;;;;5049481;28;20076;-73
2022/11/12 03:06:52;;;;;;;3.03;1.58;;;12.30;99.90;;;;;;5038020;28;20041;-72
2022/11/12 03:09:37;;;;;;;2.30;1.17;;;12.30;99.90;;;;;;5035956;28;20046;-73
2022/11/12 03:12:25;;;;;;;2.72;1.20;;;12.30;99.90;;;;;;5035896;28;20118;-72
2022/11/12 03:15:11;;;;;;;3.00;1.30;;;12.30;99.90;;;;;;5057494;28;20068;-73
2022/11/12 03:17:58;;;;;;;3.78;1.77;;;12.30;99.90;;;;;;5045401;28;20444;-72
2022/11/12 03:20:44;;;;;;;3.40;1.10;;;12.30;99.90;;;;;;5037391;28;20048;-74
2022/11/12 03:23:30;;;;;;;2.40;1.20;;;12.30;99.90;;;;;;5047833;28;20126;-72
2022/11/12 03:26:16;;;;;;;1.63;1.42;;;12.30;99.90;;;;;;5034613;28;20517;-74
2022/11/12 03:29:04;;;;;;;2.92;1.77;;;12.30;99.90;;;;;;5037517;28;20130;-73
2022/11/12 03:31:50;;;;;;;1.83;1.38;;;12.30;99.90;;;;;;5051538;28;20059;-73
2022/11/12 03:34:36;;;;;;;5.63;2.15;;;12.20;99.90;;;;;;5047214;28;20535;-71
2022/11/12 03:37:23;;;;;;;4.32;2.60;;;12.20;99.90;;;;;;5049988;28;20548;-73
2022/11/12 03:40:10;;;;;;;4.20;2.90;;;12.10;99.90;;;;;;5034868;28;20049;-72
2022/11/12 03:42:56;;;;;;;6.30;2.67;;;12.20;99.90;;;;;;5055502;28;20045;-73
2022/11/12 03:45:43;;;;;;;8.15;2.65;;;12.20;99.90;;;;;;5041568;28;20110;-72
2022/11/12 03:48:29;;;;;;;4.70;2.17;;;12.20;99.90;;;;;;5044026;28;20052;-72
2022/11/12 03:51:17;;;;;;;4.72;1.40;;;12.10;99.90;;;;;;5047300;28;20056;-72
2022/11/12 03:54:03;;;;;;;2.78;1.33;;;12.10;99.90;;;;;;5045266;28;20048;-72
2022/11/12 03:56:50;;;;;;;2.45;1.55;;;12.10;99.90;;;;;;5034821;28;20413;-72
2022/11/12 03:59:35;;;;;;;3.00;1.48;;;12.10;99.90;;;;;;5035420;28;20049;-73
2022/11/12 04:02:25;;;;;;;1.80;1.30;;;12.10;99.90;;;;;;5031370;28;20509;-73
2022/11/12 04:08:36;;;;;;;3.38;1.38;;;12.20;99.90;;;;;;5046606;28;20053;-73
2022/11/12 04:11:23;;;;;;;1.40;0.88;;;12.20;99.90;;;;;;5047913;28;20420;-74
2022/11/12 04:14:08;;;;;;;2.47;1.10;;;12.20;99.90;;;;;;5057533;28;20382;-73
2022/11/12 04:23:06;;;;;;;4.28;2.00;;;12.30;99.90;;;;;;5049298;28;20186;-78
2022/11/12 04:32:00;;;;;;;;;;;12.20;99.90;;;;;;5065808;28;20069;-77
2022/11/12 04:34:46;;;;;;;5.88;3.33;;;12.20;99.90;;;;;;5048247;28;20007;-79
2022/11/12 04:37:44;;;;;;;6.65;3.08;;;12.20;99.90;;;;;;5065967;28;20139;-78
2022/11/12 04:46:37;;;;;;;6.20;3.28;;;12.30;99.90;;;;;;5047251;28;20119;-73
2022/11/12 04:49:23;;;;;;;3.20;2.35;;;12.30;99.90;;;;;;5047443;28;20041;-72
2022/11/12 04:52:09;;;;;;;4.75;2.20;;;12.30;99.90;;;;;;5044491;28;20067;-72
2022/11/12 04:54:59;;;;;;;4.93;2.03;;;12.30;99.90;;;;;;5044021;28;20056;-72
2022/11/12 04:57:45;;;;;;;3.22;1.90;;;12.30;99.90;;;;;;5039924;28;20052;-78
2022/11/12 05:00:32;;;;;;;2.60;1.35;;;12.20;99.90;;;;;;5038020;28;20041;-78
2022/11/12 05:03:19;;;;;;;1.77;1.13;;;12.20;99.90;;;;;;5044660;28;20060;-77
2022/11/12 05:06:50;;;;;;;2.20;1.15;;;12.20;99.90;;;;;;5042614;28;20040;-77
2022/11/12 05:09:13;;;;;;;2.92;1.10;;;12.20;99.90;;;;;;5030648;28;20062;-77
2022/11/12 05:12:01;;;;;;;1.25;1.15;;;12.20;99.90;;;;;;5035989;28;20068;-75
2022/11/12 05:14:47;;;;;;;1.70;0.80;;;12.20;99.90;;;;;;5037249;28;20061;-72
2022/11/12 05:17:33;;;;;;;1.30;0.85;;;12.30;99.90;;;;;;5051291;28;20098;-72
2022/11/12 05:20:19;;;;;;;1.73;0.80;;;12.30;99.90;;;;;;5038703;28;20140;-71
2022/11/12 05:23:05;;;;;;;1.33;0.80;;;12.20;99.90;;;;;;5061827;28;20055;-71
2022/11/12 05:25:52;;;;;;;0.95;0.95;;;12.30;99.90;;;;;;5048049;28;20128;-71
2022/11/12 05:28:39;;;;;;;1.08;0.80;;;12.30;99.90;;;;;;5049009;28;20053;-72
2022/11/12 05:31:26;;;;;;;0.90;0.90;;;12.20;99.90;;;;;;5035309;28;20527;-71
2022/11/12 05:34:12;;;;;;;2.10;0.95;;;12.20;99.90;;;;;;5028866;28;20064;-70
2022/11/12 05:36:59;;;;;;;1.08;0.85;;;12.10;99.90;;;;;;5027991;28;20057;-71
2022/11/12 05:39:45;;;;;;;0.52;0.52;;;12.20;99.90;;;;;;5034938;28;20072;-73
2022/11/12 05:42:31;;;;;;;2.15;0.73;;;12.10;99.90;;;;;;5029114;28;20077;-70
2022/11/12 05:45:18;;;;;;;0.43;0.43;;;12.20;99.90;;;;;;5044955;28;20045;-74
2022/11/12 05:48:05;;;;;;;1.63;0.50;;;12.20;99.90;;;;;;5030898;28;20048;-70
2022/11/12 05:50:51;;;;;;;0.70;0.60;;;12.20;99.90;;;;;;5044697;28;20064;-70
2022/11/12 05:53:38;;;;;;;0.50;0.50;;;12.10;99.90;;;;;;5044914;28;20061;-71
2022/11/12 05:56:25;;;;;;;1.33;0.60;;;12.10;99.90;;;;;;5050151;28;20049;-71
2022/11/12 05:59:13;;;;;;;0.47;0.40;;;12.10;99.90;;;;;;5049598;28;20052;-70
2022/11/12 06:02:01;;;;;;;0.40;0.40;;;12.10;99.90;;;;;;5052319;28;20240;-69
2022/11/12 06:04:47;;;;;;;0.55;0.50;;;12.10;99.90;;;;;;5061737;28;20056;-70
2022/11/12 06:07:34;;;;;;;1.30;0.50;;;12.10;99.90;;;;;;5050968;28;20036;-71
2022/11/12 06:10:22;;;;;;;2.42;0.47;;;12.10;99.90;;;;;;5067932;28;20054;-75
2022/11/12 06:13:08;;;;;;;0.38;0.38;;;12.00;99.90;;;;;;5058757;28;20041;-74
2022/11/12 06:15:55;;;;;;;1.05;0.43;;;12.10;99.90;;;;;;5044818;28;20431;-71
2022/11/12 06:18:43;;;;;;;4.47;0.65;;;12.00;99.90;;;;;;5043095;28;20437;-70
2022/11/12 06:21:29;;;;;;;0.60;0.30;;;12.10;99.90;;;;;;5032912;28;20095;-70
2022/11/12 06:24:15;;;;;;;0.50;0.50;;;12.10;99.90;;;;;;5046173;28;20115;-71
2022/11/12 06:27:10;;;;;;;0.90;0.50;;;12.10;99.90;;;;;;5049518;28;20086;-71
2022/11/12 06:29:58;;;;;;;2.08;0.80;;;12.10;99.90;;;;;;5050781;28;20061;-70
2022/11/12 06:32:46;;;;;;;0.40;0.40;;;12.00;99.90;;;;;;5050696;28;20139;-69
2022/11/12 06:35:34;;;;;;;1.90;0.98;;;11.90;99.90;;;;;;5038659;28;20414;-72
2022/11/12 06:38:21;;;;;;;1.58;0.73;;;11.90;99.90;;;;;;5050951;28;20524;-71
2022/11/12 06:41:12;;;;;;;1.33;0.63;;;11.80;99.90;;;;;;5050674;28;20480;-70
2022/11/12 06:43:58;;;;;;;1.92;0.63;;;11.80;99.90;;;;;;5049025;28;20080;-75
2022/11/12 06:46:44;;;;;;;3.65;0.73;;;11.80;99.90;;;;;;5052420;28;20044;-75
2022/11/12 06:49:30;;;;;;;2.72;0.73;;;11.80;99.90;;;;;;5031859;28;20049;-75
2022/11/12 06:52:18;;;;;;;1.42;0.63;;;11.80;99.90;;;;;;5032642;28;20052;-74
2022/11/12 06:55:04;;;;;;;2.00;0.63;;;11.90;99.90;;;;;;5047997;28;20048;-76
2022/11/12 06:57:52;;;;;;;1.10;0.80;;;11.90;99.90;;;;;;5067770;28;20060;-75
2022/11/12 07:00:38;;;;;;;2.90;0.50;;;11.90;99.90;;;;;;5051090;28;20578;-75
2022/11/12 07:03:24;;;;;;;3.75;0.90;;;11.90;99.90;;;;;;5048122;28;20052;-71
2022/11/12 07:06:13;;;;;;;2.83;0.80;;;12.00;99.90;;;;;;5059571;28;20048;-69
2022/11/12 07:09:00;;;;;;;4.38;0.90;;;12.00;99.90;;;;;;5066188;28;20061;-70
2022/11/12 07:11:46;;;;;;;3.08;0.82;;;11.90;99.90;;;;;;5045536;28;20060;-70
2022/11/12 07:14:32;;;;;;;3.83;1.08;;;12.00;99.90;;;;;;5041876;28;20044;-70
2022/11/12 07:17:18;;;;;;;2.25;0.93;;;12.00;99.90;;;;;;5051109;28;20044;-69
2022/11/12 07:20:04;;;;;;;3.60;1.17;;;12.00;99.90;;;;;;5051270;28;20083;-72
2022/11/12 07:22:50;;;;;;;4.82;1.40;;;12.00;99.90;;;;;;5046991;28;20060;-69
2022/11/12 07:25:38;;;;;;;7.50;1.83;;;12.10;99.90;;;;;;5052037;28;20068;-71
2022/11/12 07:28:24;;;;;;;3.67;1.40;;;12.00;99.90;;;;;;5052158;28;20416;-70
2022/11/12 07:31:13;;;;;;;7.32;2.15;;;12.10;99.90;;;;;;5036927;28;20270;-71
2022/11/12 07:34:02;;;;;;;6.63;1.90;;;12.10;99.90;;;;;;5046632;28;20060;-72
2022/11/12 07:36:50;;;;;;;7.15;1.60;;;12.10;99.90;;;;;;5048671;28;20584;-70
2022/11/12 07:39:40;;;;;;;5.75;1.67;;;12.10;99.90;;;;;;5046135;28;20068;-71
2022/11/12 07:42:27;;;;;;;12.25;2.30;;;12.10;99.90;;;;;;5045220;28;20041;-76
2022/11/12 07:45:14;;;;;;;6.28;1.70;;;12.10;99.90;;;;;;5046680;28;20072;-77
2022/11/12 07:48:00;;;;;;;5.97;1.67;;;12.20;99.90;;;;;;5049747;28;20053;-77
2022/11/12 07:50:46;;;;;;;4.78;1.70;;;12.20;99.90;;;;;;5051918;28;20049;-77
2022/11/12 07:53:32;;;;;;;8.60;2.13;;;12.20;99.90;;;;;;5051849;28;20071;-77
2022/11/12 07:56:22;;;;;;;8.95;2.05;;;12.20;99.90;;;;;;5044631;28;20057;-77
2022/11/12 07:59:09;;;;;;;6.88;1.90;;;12.30;99.90;;;;;;5063311;28;20250;-77
2022/11/12 08:01:55;;;;;;;6.80;1.45;;;12.30;99.90;;;;;;5036181;28;20049;-76
2022/11/12 08:04:41;;;;;;;5.80;1.70;;;12.20;99.90;;;;;;5049418;28;20156;-72
2022/11/12 08:07:28;;;;;;;8.50;2.40;;;12.20;99.90;;;;;;5033024;28;20069;-73
2022/11/12 08:10:14;;;;;;;5.22;2.17;;;12.30;99.90;;;;;;5038120;28;20142;-72
2022/11/12 08:13:00;;;;;;;9.82;2.22;;;12.30;99.90;;;;;;5058316;28;20135;-72
2022/11/12 08:15:47;;;;;;;11.48;2.50;;;12.30;99.90;;;;;;5039398;28;20056;-72
2022/11/12 08:18:33;;;;;;;12.23;2.40;;;12.30;99.90;;;;;;5030426;28;20052;-72
2022/11/12 08:21:20;;;;;;;15.40;3.33;;;12.30;99.90;;;;;;5041452;28;20094;-72
2022/11/12 08:24:07;;;;;;;11.45;2.53;;;12.30;99.90;;;;;;5051572;28;20140;-70
2022/11/12 08:26:57;;;;;;;9.45;3.22;;;12.30;99.90;;;;;;5031811;28;20052;-77
2022/11/12 08:29:43;;;;;;;11.55;3.42;;;12.30;99.90;;;;;;5046724;28;20228;-71
2022/11/12 08:32:32;;;;;;;11.57;3.58;;;12.30;99.90;;;;;;5036991;28;20046;-72
2022/11/12 08:35:18;;;;;;;15.88;3.30;;;12.30;99.90;;;;;;5029740;28;20045;-72
2022/11/12 08:38:06;;;;;;;13.82;3.15;;;12.30;99.90;;;;;;5040645;28;20585;-73
2022/11/12 08:40:52;;;;;;;9.82;2.55;;;12.30;99.90;;;;;;5034657;28;20075;-72
2022/11/12 08:43:39;;;;;;;16.08;3.15;;;12.30;99.90;;;;;;5049587;28;20124;-72
2022/11/12 08:46:26;;;;;;;14.82;3.22;;;12.30;99.90;;;;;;5045328;28;20053;-72
2022/11/12 08:49:13;;;;;;;16.08;3.47;;;12.30;99.90;;;;;;5040177;28;20044;-73
2022/11/12 08:51:59;;;;;;;14.55;3.08;;;12.40;99.90;;;;;;5035201;28;20056;-74
2022/11/12 08:54:45;;;;;;;12.90;3.03;;;12.40;99.90;;;;;;5044108;28;20484;-74
2022/11/12 08:57:32;;;;;;;14.95;3.92;;;12.40;99.90;;;;;;5048704;28;20478;-73
2022/11/12 09:00:19;;;;;;;14.57;3.13;;;12.40;99.90;;;;;;5047390;28;20425;-74
2022/11/12 09:03:07;;;;;;;10.50;2.53;;;12.40;99.90;;;;;;5042425;28;20210;-80
2022/11/12 09:05:55;;;;;;;16.70;4.47;;;12.50;99.90;;;;;;5052537;28;20437;-78
2022/11/12 09:08:41;;;;;;;14.40;3.13;;;12.50;99.90;;;;;;5047183;28;20048;-78
2022/11/12 09:11:27;;;;;;;16.83;3.80;;;12.50;99.90;;;;;;5062547;28;20055;-77
2022/11/12 09:14:13;;;;;;;15.85;3.58;;;12.50;99.90;;;;;;5052240;28;20064;-79
2022/11/12 09:16:59;;;;;;;12.75;3.10;;;12.50;99.90;;;;;;5053042;28;20098;-76
2022/11/12 09:19:45;;;;;;;11.60;3.35;;;12.50;99.90;;;;;;5048317;28;20075;-77
2022/11/12 09:22:33;;;;;;;11.35;2.75;;;12.40;99.90;;;;;;5063687;28;20510;-77
2022/11/12 09:25:19;;;;;;;14.13;2.60;;;12.40;99.90;;;;;;5053299;28;20049;-77
2022/11/12 09:28:10;;;;;;;10.98;2.50;;;12.40;99.90;;;;;;5049237;28;20494;-76
2022/11/12 09:30:56;;;;;;;14.00;2.70;;;12.40;99.90;;;;;;5049275;28;20045;-75
2022/11/12 09:33:42;;;;;;;11.60;3.22;;;12.40;99.90;;;;;;5053010;28;20045;-77
2022/11/12 09:36:28;;;;;;;11.90;2.80;;;12.40;99.90;;;;;;5052512;28;20613;-75
2022/11/12 09:39:16;;;;;;;14.25;3.42;;;12.40;99.90;;;;;;5062607;28;20532;-77
2022/11/12 09:42:07;;;;;;;12.88;2.92;;;12.40;99.90;;;;;;5085701;28;20535;-73
2022/11/12 09:45:01;;;;;;;12.13;2.97;;;12.40;99.90;;;;;;5069162;28;20044;-72
2022/11/12 09:47:52;;;;;;;14.02;3.20;;;12.50;99.90;;;;;;5064173;28;20040;-74
2022/11/12 09:50:50;;;;;;;13.18;3.30;;;12.50;99.90;;;;;;5065419;28;20058;-72
2022/11/12 09:53:45;;;;;;;9.52;2.85;;;12.50;99.90;;;;;;5069138;28;20051;-75
2022/11/12 09:56:33;;;;;;;8.23;2.17;;;12.50;99.90;;;;;;5062563;28;20141;-76
2022/11/12 09:59:20;;;;;;;10.43;2.90;;;12.50;99.90;;;;;;5069639;28;20052;-76
2022/11/12 10:02:27;;;;;;;11.95;2.63;;;12.50;99.90;;;;;;5068567;28;20074;-77
2022/11/12 10:05:25;;;;;;;9.73;2.90;;;12.50;99.90;;;;;;5063648;28;20044;-75
2022/11/12 10:08:31;;;;;;;13.30;3.60;;;12.40;99.90;;;;;;5066904;28;20524;-77
2022/11/12 10:19:23;;;;;;;14.55;2.95;;;12.40;99.90;;;;;;5063140;28;20050;-76
2022/11/12 10:22:25;;;;;;;9.05;2.47;;;12.60;99.90;;;;;;5067634;28;20794;-76
2022/11/12 10:25:19;;;;;;;15.50;3.67;;;12.80;99.90;;;;;;5062955;28;20532;-74
2022/11/12 10:28:25;;;;;;;12.88;2.92;;;12.90;99.90;;;;;;5067970;28;20513;-75
2022/11/12 10:31:13;;;;;;;12.25;2.75;;;13.40;99.90;;;;;;5069516;28;20048;-75
2022/11/12 10:34:17;;;;;;;11.35;2.78;;;14.00;99.90;;;;;;5062835;28;20154;-76
2022/11/12 10:37:07;;;;;;;9.52;2.58;;;14.40;99.90;;;;;;5069505;28;20404;-76
2022/11/12 10:39:53;;;;;;;11.50;2.78;;;14.50;99.90;;;;;;5069796;28;20504;-71
2022/11/12 10:42:58;;;;;;;12.02;2.47;;;14.40;99.90;;;;;;5063034;28;20493;-72
2022/11/12 10:45:47;;;;;;;14.63;2.92;;;14.10;99.90;;;;;;5068051;28;20037;-73
2022/11/12 10:48:33;;;;;;;9.85;2.38;;;13.80;99.90;;;;;;5062518;28;20041;-72
2022/11/12 10:51:25;;;;;;;14.85;2.92;;;13.50;99.90;;;;;;5051366;28;20117;-71
2022/11/12 10:54:30;;;;;;;11.93;2.92;;;13.20;99.90;;;;;;5060046;28;20095;-73
2022/11/12 10:57:22;;;;;;;10.93;2.38;;;13.00;99.90;;;;;;5065023;28;20049;-73
2022/11/12 11:00:18;;;;;;;11.85;2.60;;;12.90;99.90;;;;;;5078510;28;20048;-72
2022/11/12 11:03:16;;;;;;;12.20;2.40;;;12.80;99.90;;;;;;5066694;28;20135;-73
2022/11/12 11:06:04;;;;;;;11.55;2.95;;;12.80;99.90;;;;;;5063768;28;20044;-70
2022/11/12 11:08:56;;;;;;;13.50;4.03;;;12.70;99.90;;;;;;5058182;28;20049;-72
2022/11/12 11:11:50;;;;;;;9.15;2.45;;;12.60;99.90;;;;;;5054838;28;20037;-72
2022/11/12 11:14:38;;;;;;;10.13;2.55;;;13.50;99.90;;;;;;5058997;28;20472;-72
2022/11/12 11:17:25;;;;;;;11.50;3.10;;;14.70;99.90;;;;;;5060404;28;20045;-74
2022/11/12 11:20:30;;;;;;;10.23;2.83;;;16.20;99.90;;;;;;5063959;28;20048;-75
2022/11/12 11:23:22;;;;;;;9.90;2.33;;;17.50;99.90;;;;;;5066528;28;20049;-74
2022/11/12 11:26:27;;;;;;;12.10;3.15;;;18.40;99.90;;;;;;5050607;28;20059;-74
2022/11/12 11:29:47;;;;;;;13.27;2.72;;;18.90;99.90;;;;;;5051682;28;20055;-75
2022/11/12 11:33:04;;;;;;;11.75;2.92;;;19.20;99.90;;;;;;5055725;28;20528;-76
2022/11/12 11:36:11;;;;;;;8.25;2.45;;;19.20;99.90;;;;;;5061673;28;20044;-75
2022/11/12 11:39:04;;;;;;;8.43;2.22;;;19.60;99.90;;;;;;5066727;28;20055;-77
2022/11/12 11:42:06;;;;;;;8.60;2.42;;;19.90;99.90;;;;;;5064268;28;20048;-74
2022/11/12 11:45:02;;;;;;;9.32;2.10;;;19.70;99.90;;;;;;5063934;28;20056;-76
2022/11/12 11:47:55;;;;;;;9.82;2.53;;;19.20;99.90;;;;;;5065390;28;20127;-75
2022/11/12 11:50:48;;;;;;;9.45;2.28;;;18.70;99.90;;;;;;5059233;28;20079;-76
2022/11/12 11:53:47;;;;;;;9.40;2.40;;;18.50;99.90;;;;;;5064572;28;20052;-76
2022/11/12 11:56:40;;;;;;;4.75;1.63;;;18.10;99.90;;;;;;5064422;28;20529;-77
2022/11/12 11:59:57;;;;;;;5.82;2.10;;;17.80;99.90;;;;;;5064612;28;20090;-74
2022/11/12 12:03:09;;;;;;;8.27;2.00;;;16.90;99.90;;;;;;5065226;28;20094;-75
2022/11/12 12:06:19;;;;;;;5.45;1.95;;;15.70;99.90;;;;;;5063934;28;20412;-76
2022/11/12 12:09:26;;;;;;;6.55;2.50;;;15.10;99.90;;;;;;5064105;28;20044;-73
2022/11/12 12:12:26;;;;;;;13.68;2.25;;;15.40;99.90;;;;;;5067184;28;20052;-74
2022/11/12 12:15:35;;;;;;;8.13;2.45;;;16.00;99.90;;;;;;5065067;28;20485;-73
2022/11/12 12:18:34;;;;;;;7.93;2.58;;;15.90;99.90;;;;;;5063304;28;20417;-75
2022/11/12 12:21:24;;;;;;;8.93;1.85;;;15.40;99.90;;;;;;5060577;28;20130;-72
2022/11/12 12:24:19;;;;;;;4.00;1.65;;;14.80;99.90;;;;;;5064618;28;20048;-74
2022/11/12 12:27:18;;;;;;;7.00;1.63;;;14.20;99.90;;;;;;5062996;28;20037;-75
2022/11/12 12:30:15;;;;;;;4.68;2.78;;;13.40;99.90;;;;;;5055553;28;20132;-75
2022/11/12 12:33:17;;;;;;;7.75;1.73;;;12.90;99.90;;;;;;5054054;28;20037;-75
2022/11/12 12:36:06;;;;;;;6.80;1.60;;;12.50;99.90;;;;;;5054203;28;20837;-74
2022/11/12 12:39:09;;;;;;;4.43;1.10;;;12.30;99.90;;;;;;5050406;28;20049;-75
2022/11/12 12:42:03;;;;;;;8.05;1.85;;;12.10;99.90;;;;;;5055945;28;20075;-74
2022/11/12 12:45:03;;;;;;;9.30;1.50;;;12.00;99.90;;;;;;5058380;28;20105;-76
2022/11/12 12:47:51;;;;;;;8.45;1.60;;;11.90;99.90;;;;;;5057579;28;20554;-72
2022/11/12 12:50:40;;;;;;;6.63;1.40;;;11.80;99.90;;;;;;5055398;28;20045;-72
2022/11/12 12:53:37;;;;;;;6.82;1.33;;;11.70;99.90;;;;;;5066739;28;20048;-73
2022/11/12 12:56:44;;;;;;;4.95;1.25;;;11.60;99.90;;;;;;5063181;28;20044;-73
2022/11/12 12:59:35;;;;;;;5.30;1.60;;;11.50;99.90;;;;;;5054961;28;20496;-78
2022/11/12 13:02:24;;;;;;;3.70;1.38;;;11.40;99.90;;;;;;5055240;28;20079;-74
2022/11/12 13:05:29;;;;;;;3.65;1.27;;;11.30;99.90;;;;;;5063002;28;20061;-74
2022/11/12 13:08:26;;;;;;;4.05;1.67;;;11.30;99.90;;;;;;5061256;28;20512;-80
2022/11/12 13:15:42;;;;;;;4.40;1.70;;;11.20;99.90;;;;;;5061947;28;20135;-79
2022/11/12 13:19:03;;;;;;;5.68;2.03;;;11.10;99.90;;;;;;5050823;28;20433;-80
2022/11/12 13:22:33;;;;;;;9.23;1.67;;;11.00;99.90;;;;;;5050885;28;20063;-78
2022/11/12 13:25:29;;;;;;;4.25;1.15;;;10.90;99.90;;;;;;5063049;28;20055;-79
2022/11/12 13:28:15;;;;;;;6.32;1.73;;;10.80;99.90;;;;;;5042243;28;20060;-78
2022/11/12 13:31:04;;;;;;;2.40;0.82;;;10.80;99.90;;;;;;5051541;28;20049;-77
2022/11/12 13:33:50;;;;;;;6.38;1.15;;;10.70;99.90;;;;;;5035121;28;20452;-78
2022/11/12 13:36:36;;;;;;;4.10;1.00;;;10.70;99.90;;;;;;5061735;28;20065;-78
2022/11/12 13:39:23;;;;;;;6.63;0.95;;;10.70;99.90;;;;;;5041604;28;20635;-76
2022/11/12 13:45:22;;;;;;;6.13;1.08;;;10.60;99.90;;;;;;5049890;28;20045;-76
2022/11/12 13:48:16;;;;;;;2.30;0.93;;;10.50;99.90;;;;;;5044812;28;20057;-77
2022/11/12 13:51:15;;;;;;;2.47;0.80;;;10.50;99.90;;;;;;5044535;28;20115;-74
2022/11/12 13:54:02;;;;;;;2.65;0.40;;;10.50;99.90;;;;;;5047064;28;20106;-75
2022/11/12 13:56:48;;;;;;;2.33;0.70;;;10.50;99.90;;;;;;5048468;28;20541;-75
2022/11/12 13:59:34;;;;;;;2.78;0.70;;;10.40;99.90;;;;;;5046336;28;20138;-75
2022/11/12 14:02:25;;;;;;;1.77;0.85;;;10.40;99.90;;;;;;5045210;28;20049;-73
2022/11/12 14:05:38;;;;;;;5.68;0.70;;;10.40;99.90;;;;;;5048078;28;20183;-74
2022/11/12 14:08:54;;;;;;;4.03;0.60;;;10.40;99.90;;;;;;5032519;28;20049;-75
2022/11/12 14:12:08;;;;;;;7.60;1.00;;;10.40;99.90;;;;;;5050150;28;20505;-74
2022/11/12 14:15:21;;;;;;;6.45;0.93;;;10.30;99.90;;;;;;5042871;28;20116;-75
2022/11/12 14:18:17;;;;;;;6.72;1.20;;;10.30;99.90;;;;;;5047367;28;20060;-73
2022/11/12 14:21:11;;;;;;;1.83;0.63;;;10.20;99.90;;;;;;5043647;28;20060;-73
2022/11/12 14:23:57;;;;;;;5.55;1.17;;;10.20;99.90;;;;;;5052155;28;20056;-76
2022/11/12 14:26:44;;;;;;;2.35;0.50;;;10.20;99.90;;;;;;5052059;28;20044;-78
2022/11/12 14:29:37;;;;;;;2.75;0.75;;;10.20;99.90;;;;;;5035959;28;20055;-76
2022/11/12 14:32:24;;;;;;;3.08;0.70;;;10.20;99.90;;;;;;5050334;28;20053;-78
2022/11/12 14:35:36;;;;;;;1.92;0.40;;;10.10;99.90;;;;;;5038147;28;20049;-77
2022/11/12 14:38:28;;;;;;;4.07;0.60;;;10.10;99.90;;;;;;5050237;28;20051;-76
2022/11/12 14:41:21;;;;;;;1.40;0.60;;;10.10;99.90;;;;;;5051390;28;20186;-77
2022/11/12 14:44:16;;;;;;;;;;;10.00;99.90;;;;;;5056667;28;20048;-76
2022/11/12 14:47:04;;;;;;;1.10;0.88;;;10.00;99.90;;;;;;5061087;28;20420;-78
2022/11/12 14:49:53;;;;;;;3.15;1.02;;;10.00;99.90;;;;;;5064023;28;20127;-80
2022/11/12 14:52:44;;;;;;;4.43;1.20;;;10.00;99.90;;;;;;5066035;28;20044;-77
2022/11/12 14:55:35;;;;;;;3.78;0.70;;;10.00;99.90;;;;;;5065200;28;20056;-78
2022/11/12 14:58:25;;;;;;;3.10;1.25;;;10.00;99.90;;;;;;5070208;28;20048;-76
2022/11/12 15:01:21;;;;;;;3.17;0.95;;;10.00;99.90;;;;;;5066292;28;20052;-76
2022/11/12 15:04:20;;;;;;;4.95;1.25;;;10.00;99.90;;;;;;5067572;28;20135;-75
2022/11/12 15:07:06;;;;;;;2.45;1.10;;;10.10;99.90;;;;;;5065539;28;20060;-78
2022/11/12 15:09:55;;;;;;;2.80;0.80;;;10.10;99.90;;;;;;5070298;28;20040;-78
2022/11/12 15:12:43;;;;;;;4.57;1.05;;;10.10;99.90;;;;;;5065761;28;20131;-79
2022/11/12 15:15:29;;;;;;;2.33;0.60;;;10.00;99.90;;;;;;5065621;28;20150;-78
2022/11/12 15:18:20;;;;;;;1.20;0.50;;;10.10;99.90;;;;;;5061349;28;20040;-78
2022/11/12 15:21:14;;;;;;;6.43;0.90;;;10.10;99.90;;;;;;5064788;28;20590;-78